Time;durP1;ratioP1;P1;durP2;ratioP2;P2;SDS_P1;SDS_P2;PMS_P1;PMS_P2;Temp;Humidity;BMP_temperature;BMP_pressure;BME280_temperature;BME280_humidity;BME280_pressure;Samples;Min_cycle;Max_cycle;Signal;HPM_P1;HPM_P2
2023/07/11 00:00:38;;;;;;;;;1.67;1.00;;;;;25.37;34.99;101390.09;5013865;28;45516;-48
2023/07/11 00:03:03;;;;;;;;;1.67;1.00;;;;;25.34;34.62;101387.66;5016502;28;45420;-50
2023/07/11 00:05:28;;;;;;;;;2.67;2.33;;;;;25.33;35.31;101391.41;5014147;28;62303;-48
2023/07/11 00:07:54;;;;;;;;;1.75;1.75;;;;;25.30;35.44;101378.13;5017219;28;45862;-48
2023/07/11 00:10:19;;;;;;;;;1.00;1.00;;;;;25.27;35.09;101382.00;5016961;28;67076;-49
2023/07/11 00:12:45;;;;;;;;;2.00;2.00;;;;;25.27;35.62;101377.41;5016525;28;61815;-47
2023/07/11 00:15:12;;;;;;;;;1.00;1.00;;;;;25.24;35.75;101376.91;5014818;28;45471;-50
2023/07/11 00:17:38;;;;;;;;;1.75;1.75;;;;;25.21;35.80;101377.19;5013582;28;45450;-50
2023/07/11 00:20:05;;;;;;;;;1.67;1.67;;;;;25.20;35.68;101378.19;5013996;28;45508;-46
2023/07/11 00:22:31;;;;;;;;;2.00;2.00;;;;;25.17;35.98;101370.38;5015513;28;46734;-49
2023/07/11 00:24:56;;;;;;;;;0.50;0.50;;;;;25.16;35.83;101374.97;5012431;28;45589;-50
2023/07/11 00:27:23;;;;;;;;;4.67;2.00;;;;;25.16;35.70;101366.81;5015342;28;72957;-47
2023/07/11 00:29:49;;;;;;;;;3.67;1.67;;;;;25.13;36.31;101367.09;5016693;28;45478;-47
2023/07/11 00:32:14;;;;;;;;;2.00;2.00;;;;;25.11;36.02;101369.16;5010581;28;45217;-50
2023/07/11 00:34:40;;;;;;;;;3.00;2.33;;;;;25.10;36.55;101378.31;5015540;28;45496;-48
2023/07/11 00:37:06;;;;;;;;;10.00;2.00;;;;;25.09;36.04;101373.88;5009395;28;46283;-49
2023/07/11 00:39:33;;;;;;;;;2.00;2.00;;;;;25.07;36.56;101370.44;5014818;28;45333;-49
2023/07/11 00:41:59;;;;;;;;;3.33;2.33;;;;;25.07;36.17;101368.59;5016051;28;45667;-48
2023/07/11 00:44:25;;;;;;;;;2.33;2.33;;;;;25.06;36.27;101369.59;5015146;28;45489;-51
2023/07/11 00:46:51;;;;;;;;;2.67;2.00;;;;;25.04;36.54;101362.63;5015740;28;45949;-50
2023/07/11 00:49:20;;;;;;;;;3.33;3.33;;;;;25.03;36.57;101361.78;5011012;28;45645;-47
2023/07/11 00:51:54;;;;;;;;;2.67;2.67;;;;;25.02;36.72;101361.94;5013651;28;45349;-50
2023/07/11 00:54:23;;;;;;;;;3.67;3.67;;;;;24.99;37.00;101359.50;5008103;28;45500;-48
2023/07/11 00:56:49;;;;;;;;;4.00;3.00;;;;;24.97;37.33;101364.28;5013981;28;46415;-48
2023/07/11 00:59:16;;;;;;;;;2.00;2.00;;;;;24.93;36.84;101363.72;5014081;28;46017;-49
2023/07/11 01:01:46;;;;;;;;;4.00;3.00;;;;;24.89;36.99;101365.06;5015846;28;45406;-48
2023/07/11 01:04:14;;;;;;;;;1.75;1.75;;;;;24.87;37.05;101361.63;5011088;28;45321;-46
2023/07/11 01:06:40;;;;;;;;;3.00;2.00;;;;;24.85;37.23;101369.94;5009985;28;47183;-50
2023/07/11 01:09:05;;;;;;;;;2.33;2.00;;;;;24.82;37.56;101370.25;5012390;28;45761;-50
2023/07/11 01:11:42;;;;;;;;;2.67;2.00;;;;;24.79;37.96;101367.00;5015548;28;45308;-48
2023/07/11 01:14:07;;;;;;;;;6.67;2.67;;;;;24.76;37.81;101369.03;5009783;28;46389;-51
2023/07/11 01:16:41;;;;;;;;;2.67;2.33;;;;;24.76;37.80;101362.75;5009903;28;75589;-51
2023/07/11 01:19:07;;;;;;;;;3.00;3.00;;;;;24.71;37.50;101359.63;5011505;28;45556;-48
2023/07/11 01:21:32;;;;;;;;;3.00;3.00;;;;;24.66;37.64;101364.69;5012120;28;50199;-48
2023/07/11 01:23:57;;;;;;;;;2.00;2.00;;;;;24.61;38.17;101357.81;5013858;28;45597;-51
2023/07/11 01:26:23;;;;;;;;;3.67;3.67;;;;;24.59;37.68;101357.09;5011793;28;70414;-51
2023/07/11 01:28:48;;;;;;;;;3.00;3.00;;;;;24.57;37.94;101352.84;5012169;28;66920;-48
2023/07/11 01:31:13;;;;;;;;;4.00;3.00;;;;;24.56;38.00;101351.13;5008866;28;62725;-48
2023/07/11 01:33:39;;;;;;;;;1.00;1.00;;;;;24.51;37.89;101350.72;5013061;28;69048;-48
2023/07/11 01:36:04;;;;;;;;;3.00;3.00;;;;;24.48;37.88;101353.78;5017516;28;55210;-47
2023/07/11 01:38:30;;;;;;;;;4.00;4.00;;;;;24.45;38.12;101355.78;5013686;28;45277;-47
2023/07/11 01:40:55;;;;;;;;;3.00;3.00;;;;;24.42;38.42;101347.09;5008922;28;45792;-50
2023/07/11 01:43:20;;;;;;;;;3.33;3.33;;;;;24.38;38.61;101343.81;5013296;28;45519;-48
2023/07/11 01:45:46;;;;;;;;;2.00;2.00;;;;;24.34;39.17;101345.16;5007189;28;68919;-48
2023/07/11 01:48:11;;;;;;;;;3.67;3.67;;;;;24.31;39.04;101341.88;5015223;28;45407;-48
2023/07/11 01:50:37;;;;;;;;;3.67;3.00;;;;;24.29;38.91;101339.31;5014928;28;66212;-51
2023/07/11 01:53:03;;;;;;;;;5.00;3.00;;;;;24.30;39.07;101340.16;5012340;28;69633;-51
2023/07/11 01:55:28;;;;;;;;;4.00;2.00;;;;;24.30;39.29;101332.00;5010477;28;46315;-51
2023/07/11 01:57:54;;;;;;;;;2.67;2.67;;;;;24.31;38.99;101339.16;5009655;28;45416;-49
2023/07/11 02:00:19;;;;;;;;;3.00;3.00;;;;;24.30;39.29;101337.44;5015755;28;67017;-50
2023/07/11 02:02:44;;;;;;;;;5.33;4.00;;;;;24.29;39.25;101325.72;4998246;28;45401;-50
2023/07/11 02:05:10;;;;;;;;;3.00;2.00;;;;;24.29;39.23;101331.16;5012835;28;45717;-49
2023/07/11 02:07:35;;;;;;;;;3.00;3.00;;;;;24.27;39.88;101330.44;5016207;28;48798;-51
2023/07/11 02:10:00;;;;;;;;;3.33;3.33;;;;;24.24;39.90;101325.34;5018684;28;69255;-48
2023/07/11 02:12:26;;;;;;;;;2.00;2.00;;;;;24.19;39.50;101328.50;5014367;28;64292;-50
2023/07/11 02:14:51;;;;;;;;;4.00;4.00;;;;;24.16;40.15;101315.22;5016371;28;63661;-49
2023/07/11 02:17:16;;;;;;;;;2.67;2.00;;;;;24.14;40.08;101314.50;5016338;28;72186;-48
2023/07/11 02:19:44;;;;;;;;;3.00;3.00;;;;;24.13;40.22;101317.41;5018795;28;45721;-49
2023/07/11 02:22:10;;;;;;;;;3.00;3.00;;;;;24.08;40.12;101317.88;5018164;28;45546;-50
2023/07/11 02:24:35;;;;;;;;;3.00;3.00;;;;;24.04;40.23;101313.72;5010070;28;46366;-49
2023/07/11 02:27:00;;;;;;;;;4.67;2.33;;;;;24.00;40.45;101304.19;5017969;28;45309;-47
2023/07/11 02:29:25;;;;;;;;;4.00;3.00;;;;;23.95;40.50;101300.06;5013264;28;59084;-51
2023/07/11 02:31:51;;;;;;;;;4.00;4.00;;;;;23.94;40.62;101302.94;5017520;28;66839;-51
2023/07/11 02:34:16;;;;;;;;;4.33;4.00;;;;;23.91;40.90;101297.78;5016178;28;46207;-47
2023/07/11 02:36:42;;;;;;;;;2.00;2.00;;;;;23.88;40.97;101298.91;5011439;28;71656;-49
2023/07/11 02:39:07;;;;;;;;;2.75;2.75;;;;;23.85;40.94;101298.38;5018687;28;66457;-51
2023/07/11 02:41:32;;;;;;;;;4.33;4.00;;;;;23.82;40.97;101291.41;5017461;28;68343;-50
2023/07/11 02:43:58;;;;;;;;;3.00;3.00;;;;;23.79;41.14;101289.84;5017410;28;48354;-51
2023/07/11 02:46:23;;;;;;;;;3.33;3.33;;;;;23.77;41.39;101291.00;5009366;28;45418;-47
2023/07/11 02:48:49;;;;;;;;;5.67;4.33;;;;;23.75;41.51;101283.00;5016947;28;68510;-48
2023/07/11 02:51:14;;;;;;;;;6.00;3.67;;;;;23.75;41.34;101285.72;5015789;28;45429;-52
2023/07/11 02:53:40;;;;;;;;;4.00;4.00;;;;;23.73;41.64;101286.88;5018494;28;46157;-48
2023/07/11 02:56:05;;;;;;;;;4.00;3.00;;;;;23.70;41.92;101285.31;5013973;28;71569;-49
2023/07/11 02:58:30;;;;;;;;;2.00;2.00;;;;;23.67;41.79;101282.03;5017918;28;66053;-51
2023/07/11 03:00:59;;;;;;;;;5.00;4.00;;;;;23.62;41.99;101271.63;5013190;28;64788;-47
2023/07/11 03:03:24;;;;;;;;;5.00;3.67;;;;;23.59;42.48;101270.06;5014536;28;45558;-50
2023/07/11 03:05:51;;;;;;;;;7.00;4.00;;;;;23.55;42.43;101278.69;5009118;28;68500;-51
2023/07/11 03:08:16;;;;;;;;;5.00;3.00;;;;;23.52;42.69;101279.84;5010321;28;45654;-50
2023/07/11 03:10:42;;;;;;;;;2.00;2.00;;;;;23.49;42.54;101271.13;5018068;28;45495;-48
2023/07/11 03:13:08;;;;;;;;;4.67;3.00;;;;;23.48;42.36;101270.28;5013437;28;45305;-49
2023/07/11 03:15:34;;;;;;;;;4.00;4.00;;;;;23.47;42.71;101274.00;5017363;28;45446;-51
2023/07/11 03:18:00;;;;;;;;;3.00;3.00;;;;;23.43;42.98;101270.72;5018622;28;45482;-49
2023/07/11 03:20:25;;;;;;;;;3.00;3.00;;;;;23.39;42.90;101274.75;5010819;28;45359;-50
2023/07/11 03:23:24;;;;;;;;;5.00;4.00;;;;;23.36;43.32;101268.75;5016307;28;56958;-50
2023/07/11 03:25:50;;;;;;;;;4.33;4.33;;;;;23.33;43.27;101264.47;5016069;28;45430;-48
2023/07/11 03:28:15;;;;;;;;;3.00;3.00;;;;;23.32;43.70;101267.34;5014587;28;45428;-50
2023/07/11 03:30:40;;;;;;;;;4.00;4.00;;;;;23.29;43.39;101257.66;5016434;28;45360;-47
2023/07/11 03:33:06;;;;;;;;;7.00;4.00;;;;;23.27;43.63;101251.50;5012952;28;45512;-51
2023/07/11 03:35:32;;;;;;;;;3.00;3.00;;;;;23.25;43.90;101253.53;5016901;28;45439;-47
2023/07/11 03:37:59;;;;;;;;;4.00;4.00;;;;;23.20;43.85;101234.97;5013500;28;47694;-47
2023/07/11 03:40:25;;;;;;;;;4.67;4.67;;;;;23.20;44.12;101255.81;5017775;28;45476;-49
2023/07/11 03:42:50;;;;;;;;;4.00;3.33;;;;;23.19;44.06;101248.69;5016997;28;46225;-47
2023/07/11 03:45:15;;;;;;;;;4.00;4.00;;;;;23.18;44.04;101246.97;5016902;28;59971;-50
2023/07/11 03:47:41;;;;;;;;;6.33;4.33;;;;;23.18;44.29;101236.13;5010832;28;45300;-51
2023/07/11 03:50:07;;;;;;;;;8.67;4.00;;;;;23.16;44.39;101244.41;5016606;28;67084;-50
2023/07/11 03:52:32;;;;;;;;;8.67;5.00;;;;;23.16;44.18;101244.41;5017250;28;45738;-49
2023/07/11 03:54:57;;;;;;;;;5.33;5.33;;;;;23.15;44.38;101241.84;5015856;28;72493;-49
2023/07/11 03:57:23;;;;;;;;;4.00;3.00;;;;;23.12;44.64;101238.38;5010526;28;66376;-49
2023/07/11 03:59:48;;;;;;;;;4.33;4.33;;;;;23.11;44.52;101234.00;5016408;28;67752;-47
2023/07/11 04:02:14;;;;;;;;;3.67;3.00;;;;;23.10;44.80;101235.00;5013582;28;70656;-48
2023/07/11 04:04:40;;;;;;;;;5.33;4.00;;;;;23.08;45.09;101234.28;5013730;28;45635;-50
2023/07/11 04:07:05;;;;;;;;;4.00;4.00;;;;;23.06;45.35;101239.00;5016841;28;45451;-49
2023/07/11 04:09:31;;;;;;;;;5.33;5.33;;;;;23.05;45.01;101231.00;5016207;28;45348;-50
2023/07/11 04:11:56;;;;;;;;;3.33;3.33;;;;;23.04;45.15;101232.03;5008370;28;72003;-51
2023/07/11 04:14:22;;;;;;;;;5.00;5.00;;;;;23.04;45.38;101230.16;5016152;28;70768;-52
2023/07/11 04:16:47;;;;;;;;;7.67;5.00;;;;;23.03;45.13;101233.84;5008957;28;63349;-49
2023/07/11 04:19:12;;;;;;;;;8.00;4.67;;;;;23.05;45.37;101229.16;5017053;28;64433;-48
2023/07/11 04:21:38;;;;;;;;;5.67;5.00;;;;;23.06;45.38;101230.00;5014366;28;68197;-49
2023/07/11 04:24:03;;;;;;;;;5.00;5.00;;;;;23.05;45.43;101231.88;5013730;28;45379;-51
2023/07/11 04:26:28;;;;;;;;;6.00;6.00;;;;;23.07;45.44;101234.41;5008861;28;45465;-52
2023/07/11 04:28:54;;;;;;;;;5.50;4.00;;;;;23.09;45.82;101236.00;5012553;28;70530;-49
2023/07/11 04:31:19;;;;;;;;;4.67;4.67;;;;;23.12;45.82;101229.41;4992186;28;67597;-48
2023/07/11 04:33:44;;;;;;;;;3.33;3.33;;;;;23.13;45.51;101226.53;5014145;28;70738;-49
2023/07/11 04:36:13;;;;;;;;;4.00;4.00;;;;;23.13;45.31;101229.25;5012938;28;67100;-49
2023/07/11 04:38:38;;;;;;;;;6.00;4.67;;;;;23.17;45.58;101227.13;5011060;28;45451;-52
2023/07/11 04:41:05;;;;;;;;;5.00;3.67;;;;;23.22;45.03;101227.53;5012854;28;46093;-49
2023/07/11 04:43:33;;;;;;;;;6.00;3.50;;;;;23.24;45.21;101220.09;5012067;28;45527;-52
2023/07/11 04:45:59;;;;;;;;;4.00;3.67;;;;;23.24;44.68;101220.09;5016294;28;45561;-52
2023/07/11 04:48:24;;;;;;;;;4.33;3.00;;;;;23.25;44.61;101215.53;5008389;28;45390;-51
2023/07/11 04:50:57;;;;;;;;;3.00;3.00;;;;;23.33;44.56;101218.34;4998362;28;58230;-51
2023/07/11 04:53:23;;;;;;;;;4.67;4.67;;;;;23.42;44.87;101228.28;5011055;28;45280;-52
2023/07/11 04:55:57;;;;;;;;;5.00;4.67;;;;;23.53;44.35;101229.97;5010850;28;45936;-50
2023/07/11 04:58:23;;;;;;;;;4.33;3.00;;;;;23.61;44.45;101231.94;5009169;28;45487;-52
2023/07/11 05:00:48;;;;;;;;;4.33;2.67;;;;;23.66;44.52;101232.31;5012298;28;46492;-50
2023/07/11 05:03:14;;;;;;;;;6.00;5.00;;;;;23.74;44.20;101235.13;5013653;28;64392;-52
2023/07/11 05:05:39;;;;;;;;;7.00;6.00;;;;;23.83;44.35;101227.94;5014757;28;62176;-48
2023/07/11 05:08:04;;;;;;;;;7.00;7.00;;;;;23.89;44.04;101237.31;5008824;28;66160;-51
2023/07/11 05:10:30;;;;;;;;;8.00;7.00;;;;;23.93;44.60;101228.72;5012867;28;75671;-51
2023/07/11 05:12:55;;;;;;;;;6.67;5.33;;;;;23.93;44.29;101231.44;5014957;28;45402;-51
2023/07/11 05:15:20;;;;;;;;;6.67;5.67;;;;;23.97;43.92;101231.16;5008047;28;67414;-51
2023/07/11 05:17:46;;;;;;;;;8.00;5.67;;;;;23.92;44.12;101229.75;5004912;28;61576;-48
2023/07/11 05:20:11;;;;;;;;;5.67;5.33;;;;;23.83;43.92;101233.38;5013550;28;71466;-49
2023/07/11 05:22:37;;;;;;;;;8.00;7.00;;;;;23.81;44.21;101231.81;5011687;28;45718;-41
2023/07/11 05:25:03;;;;;;;;;11.33;7.67;;;;;23.79;44.30;101229.22;5015876;28;45514;-40
2023/07/11 05:27:29;;;;;;;;;5.67;5.67;;;;;23.77;44.15;101228.53;5009063;28;45586;-40
2023/07/11 05:29:54;;;;;;;;;7.00;7.00;;;;;23.82;44.06;101223.50;5015232;28;46295;-41
2023/07/11 05:32:19;;;;;;;;;5.00;4.33;;;;;23.91;44.33;101232.59;5006606;28;69685;-40
2023/07/11 05:34:45;;;;;;;;;6.67;3.33;;;;;24.00;43.78;101220.84;5016976;28;45574;-41
2023/07/11 05:37:10;;;;;;;;;6.00;3.33;;;;;24.05;43.87;101221.22;5015790;28;49875;-40
2023/07/11 05:39:35;;;;;;;;;5.00;5.00;;;;;24.11;43.74;101217.03;5014732;28;71456;-40
2023/07/11 05:42:02;;;;;;;;;4.00;4.00;;;;;24.19;43.41;101217.09;5013664;28;72952;-41
2023/07/11 05:44:27;;;;;;;;;3.67;3.67;;;;;24.28;43.36;101212.59;5017158;28;45889;-40
2023/07/11 05:46:53;;;;;;;;;3.00;3.00;;;;;24.37;42.95;101216.25;5019249;28;45613;-41
2023/07/11 05:49:18;;;;;;;;;5.33;3.33;;;;;24.40;42.94;101216.75;5015984;28;45554;-40
2023/07/11 05:51:44;;;;;;;;;5.33;4.00;;;;;24.43;42.57;101213.75;5016148;28;45439;-40
2023/07/11 05:54:09;;;;;;;;;4.33;3.00;;;;;24.47;42.72;101211.56;5019021;28;57580;-40
2023/07/11 05:56:35;;;;;;;;;3.75;3.25;;;;;24.49;42.83;101208.69;5019388;28;57626;-40
2023/07/11 05:59:00;;;;;;;;;5.75;3.25;;;;;24.54;42.17;101207.19;5016479;28;74733;-40
2023/07/11 06:01:28;;;;;;;;;3.50;3.00;;;;;24.61;42.28;101208.28;5011861;28;45456;-40
2023/07/11 06:04:16;;;;;;;;;4.00;4.00;;;;;24.70;42.28;101208.34;5018225;28;46293;-40
2023/07/11 06:06:41;;;;;;;;;3.00;3.00;;;;;24.69;42.02;101203.91;5013972;28;45504;-40
2023/07/11 06:09:18;;;;;;;;;3.00;3.00;;;;;24.72;42.45;101209.06;5010144;28;45681;-40
2023/07/11 06:11:45;;;;;;;;;3.00;3.00;;;;;24.76;41.74;101200.41;5017248;28;45814;-40
2023/07/11 06:14:11;;;;;;;;;4.00;1.00;;;;;24.77;41.68;101202.09;5016458;28;45684;-40
2023/07/11 06:16:37;;;;;;;;;3.00;3.00;;;;;24.79;42.04;101198.38;5017640;28;45790;-40
2023/07/11 06:19:04;;;;;;;;;4.67;4.67;;;;;24.85;41.83;101206.75;5016392;28;46026;-40
2023/07/11 06:21:30;;;;;;;;;3.33;3.33;;;;;24.91;42.11;101208.84;5016513;28;45484;-40
2023/07/11 06:23:56;;;;;;;;;5.00;4.00;;;;;25.00;41.71;101200.72;5018743;28;45243;-40
2023/07/11 06:26:21;;;;;;;;;4.33;4.00;;;;;25.10;42.32;101205.00;5015383;28;45411;-41
2023/07/11 06:28:46;;;;;;;;;6.67;5.00;;;;;25.21;42.04;101203.00;5012495;28;46595;-41
2023/07/11 06:31:12;;;;;;;;;4.00;4.00;;;;;25.30;41.32;101201.19;5012886;28;45444;-40
2023/07/11 06:33:38;;;;;;;;;5.00;3.67;;;;;25.38;41.23;101198.53;5019186;28;45513;-40
2023/07/11 06:36:05;;;;;;;;;3.00;3.00;;;;;25.47;41.12;101200.25;5016724;28;45416;-41
2023/07/11 06:38:30;;;;;;;;;5.00;3.33;;;;;25.56;40.73;101199.25;5010419;28;46205;-41
2023/07/11 06:40:56;;;;;;;;;2.33;2.33;;;;;27.45;39.56;101191.97;5014870;28;45370;-41
2023/07/11 06:43:24;;;;;;;;;4.00;3.00;;;;;30.83;35.51;101192.59;5014884;28;45668;-41
2023/07/11 06:45:50;;;;;;;;;6.00;5.00;;;;;34.02;33.02;101187.50;5018769;28;46780;-41
2023/07/11 06:48:17;;;;;;;;;2.50;2.50;;;;;36.59;29.57;101185.78;5015027;28;46791;-41
2023/07/11 06:50:50;;;;;;;;;3.50;3.00;;;;;38.46;27.39;101186.41;5018063;28;45487;-41
2023/07/11 06:53:16;;;;;;;;;2.75;2.75;;;;;40.34;24.89;101184.38;5018073;28;45448;-42
2023/07/11 06:55:46;;;;;;;;;1.50;1.50;;;;;38.84;24.04;101186.66;5016762;28;45637;-40
2023/07/11 06:58:11;;;;;;;;;4.75;2.75;;;;;36.71;24.76;101189.41;5016847;28;46111;-39
2023/07/11 07:00:37;;;;;;;;;2.50;1.00;;;;;35.07;25.77;101191.41;5009550;28;59799;-38
2023/07/11 07:03:02;;;;;;;;;2.00;2.00;;;;;33.67;27.74;101183.22;5015446;28;45738;-39
2023/07/11 07:05:28;;;;;;;;;3.75;1.00;;;;;32.65;28.29;101186.53;5016261;28;45548;-39
2023/07/11 07:07:53;;;;;;;;;5.00;3.25;;;;;31.93;29.24;101181.66;5015814;28;71109;-40
2023/07/11 07:10:20;;;;;;;;;2.67;2.00;;;;;31.27;30.06;101193.28;5019453;28;45401;-40
2023/07/11 07:12:45;;;;;;;;;1.00;1.00;;;;;30.78;30.42;101189.59;5015457;28;45674;-40
2023/07/11 07:15:11;;;;;;;;;3.00;3.00;;;;;30.45;31.21;101188.28;5014764;28;58008;-39
2023/07/11 07:17:36;;;;;;;;;3.75;2.50;;;;;30.23;31.38;101183.91;5014180;28;47008;-39
2023/07/11 07:20:02;;;;;;;;;2.00;2.00;;;;;30.08;32.54;101182.09;5017455;28;69290;-39
2023/07/11 07:22:27;;;;;;;;;2.75;2.25;;;;;30.11;31.99;101184.41;5018018;28;45697;-39
2023/07/11 07:24:52;;;;;;;;;2.50;1.75;;;;;30.14;32.00;101181.31;5016866;28;69055;-39
2023/07/11 07:27:18;;;;;;;;;1.25;1.25;;;;;30.16;32.29;101181.09;5017695;28;64425;-39
2023/07/11 07:29:43;;;;;;;;;3.00;2.50;;;;;30.15;32.15;101176.66;5019341;28;45436;-39
2023/07/11 07:32:09;;;;;;;;;3.00;2.00;;;;;30.19;33.04;101167.84;5010574;28;45458;-39
2023/07/11 07:34:34;;;;;;;;;3.75;2.50;;;;;30.29;32.47;101164.75;5017252;28;65371;-39
2023/07/11 07:36:59;;;;;;;;;2.00;2.00;;;;;30.30;31.98;101158.22;5016886;28;59225;-39
2023/07/11 07:39:25;;;;;;;;;4.00;2.50;;;;;30.35;32.80;101160.34;5017525;28;60601;-39
2023/07/11 07:41:50;;;;;;;;;3.50;3.00;;;;;30.38;31.48;101153.63;5018593;28;45557;-40
2023/07/11 07:44:15;;;;;;;;;1.00;1.00;;;;;30.33;31.62;101159.72;5017386;28;65369;-39
2023/07/11 07:46:41;;;;;;;;;1.00;1.00;;;;;30.30;31.91;101160.13;5017878;28;45502;-39
2023/07/11 07:49:06;;;;;;;;;2.50;1.00;;;;;30.29;32.38;101162.00;5017660;28;45269;-39
2023/07/11 07:51:31;;;;;;;;;1.25;1.25;;;;;30.26;32.51;101150.56;5017453;28;45203;-39
2023/07/11 07:53:57;;;;;;;;;3.00;2.50;;;;;30.23;32.49;101153.72;5016168;28;68214;-39
2023/07/11 07:56:23;;;;;;;;;4.00;2.25;;;;;30.31;31.98;101145.34;5017131;28;69277;-39
2023/07/11 07:58:49;;;;;;;;;4.75;2.00;;;;;30.38;32.27;101153.63;5016862;28;45304;-39
2023/07/11 08:01:16;;;;;;;;;2.00;2.00;;;;;30.51;32.40;101153.75;5016987;28;45490;-39
2023/07/11 08:03:42;;;;;;;;;1.50;1.50;;;;;30.55;31.70;101154.19;5014431;28;45545;-39
2023/07/11 08:06:08;;;;;;;;;3.00;1.50;;;;;30.48;32.26;101152.28;5013834;28;46225;-39
2023/07/11 08:08:34;;;;;;;;;3.00;1.50;;;;;30.52;31.51;101147.25;5016330;28;45579;-39
2023/07/11 08:11:04;;;;;;;;;4.50;2.00;;;;;30.62;31.90;101144.94;5008469;28;62271;-39
2023/07/11 08:13:30;;;;;;;;;3.00;1.50;;;;;30.71;32.37;101144.81;5017661;28;45359;-40
2023/07/11 08:15:55;;;;;;;;;2.50;1.50;;;;;30.81;31.85;101139.81;5017317;28;45200;-39
2023/07/11 08:18:20;;;;;;;;;3.00;1.00;;;;;30.89;31.93;101127.81;5014103;28;45460;-39
2023/07/11 08:20:46;;;;;;;;;2.25;2.25;;;;;30.94;31.71;101133.53;5015816;28;45316;-39
2023/07/11 08:23:11;;;;;;;;;1.50;1.50;;;;;31.01;31.38;101127.00;5016409;28;62528;-39
2023/07/11 08:25:36;;;;;;;;;2.25;2.25;;;;;30.89;31.54;101123.16;5016818;28;46233;-39
2023/07/11 08:28:04;;;;;;;;;1.75;1.75;;;;;30.92;31.93;101113.66;5008539;28;45403;-39
2023/07/11 08:30:30;;;;;;;;;5.00;3.00;;;;;31.01;31.69;101106.94;5011653;28;45351;-39
2023/07/11 08:32:55;;;;;;;;;3.00;3.00;;;;;31.08;31.21;101102.38;5009817;28;45429;-39
2023/07/11 08:35:20;;;;;;;;;5.50;3.00;;;;;31.13;31.57;101102.59;5012479;28;60750;-39
2023/07/11 08:37:46;;;;;;;;;2.50;2.50;;;;;31.16;31.12;101096.69;5017630;28;45792;-39
2023/07/11 08:40:18;;;;;;;;;4.00;3.00;;;;;31.18;31.70;101096.47;5016580;28;67061;-39
2023/07/11 08:42:44;;;;;;;;;2.67;2.67;;;;;31.11;31.50;101098.38;5017116;28;45763;-39
2023/07/11 08:45:26;;;;;;;;;4.75;3.75;;;;;31.08;31.16;101094.13;5015567;28;47105;-39
2023/07/11 08:47:59;;;;;;;;;2.75;2.50;;;;;31.16;31.57;101091.19;5015653;28;45452;-40
2023/07/11 08:50:31;;;;;;;;;4.25;2.75;;;;;31.20;31.69;101096.25;5016526;28;45447;-39
2023/07/11 08:53:12;;;;;;;;;4.00;2.00;;;;;31.28;31.18;101094.19;5017730;28;45422;-40
2023/07/11 08:55:43;;;;;;;;;2.00;2.00;;;;;31.38;31.37;101090.19;5006326;28;45407;-40
2023/07/11 08:58:16;;;;;;;;;1.75;1.75;;;;;31.49;31.59;101081.34;5015793;28;45555;-39
2023/07/11 09:00:43;;;;;;;;;5.50;3.75;;;;;31.67;31.45;101078.00;5016703;28;45308;-39
2023/07/11 09:03:24;;;;;;;;;4.00;3.00;;;;;31.82;31.03;101080.53;5015871;28;45819;-39
2023/07/11 09:06:03;;;;;;;;;3.50;3.00;;;;;32.00;31.16;101069.75;5014288;28;46102;-39
2023/07/11 09:08:29;;;;;;;;;2.50;2.50;;;;;32.18;30.77;101071.03;5015801;28;45296;-39
2023/07/11 09:10:57;;;;;;;;;4.25;3.00;;;;;32.20;30.90;101068.91;5018559;28;49616;-40
2023/07/11 09:13:35;;;;;;;;;3.50;3.50;;;;;32.13;30.78;101062.56;5020545;28;45463;-39
2023/07/11 09:16:07;;;;;;;;;4.00;4.00;;;;;32.27;30.64;101063.41;5002505;28;47304;-39
2023/07/11 09:18:42;;;;;;;;;6.00;5.00;;;;;32.44;30.71;101058.28;5017468;28;45470;-39
2023/07/11 09:21:19;;;;;;;;;4.67;4.67;;;;;32.51;29.57;101064.59;5020621;28;45428;-39
2023/07/11 09:24:00;;;;;;;;;5.75;4.25;;;;;32.44;30.14;101061.88;5017151;28;45762;-39
2023/07/11 09:26:30;;;;;;;;;3.00;3.00;;;;;32.31;30.92;101054.50;5018930;28;47413;-40
2023/07/11 09:29:05;;;;;;;;;1.50;1.25;;;;;32.37;30.27;101052.78;5019938;28;45579;-39
2023/07/11 09:31:39;;;;;;;;;3.50;3.50;;;;;32.43;30.40;101059.34;5014656;28;51758;-40
2023/07/11 09:34:19;;;;;;;;;3.50;2.75;;;;;32.38;30.39;101059.16;5010631;28;45586;-40
2023/07/11 09:36:47;;;;;;;;;3.75;3.25;;;;;32.38;30.59;101053.66;5006226;28;46069;-39
2023/07/11 09:39:24;;;;;;;;;2.75;2.75;;;;;32.44;30.32;101055.53;5012635;28;45483;-40
2023/07/11 09:42:08;;;;;;;;;2.25;2.25;;;;;32.54;30.76;101046.81;5019571;28;45388;-40
2023/07/11 09:44:33;;;;;;;;;5.00;5.00;;;;;32.70;30.37;101032.56;5007052;28;45525;-40
2023/07/11 09:47:16;;;;;;;;;4.25;4.25;;;;;32.87;29.71;101030.19;5010618;28;57519;-39
2023/07/11 09:49:42;;;;;;;;;4.00;3.50;;;;;33.03;30.05;101028.84;5016809;28;45684;-40
2023/07/11 09:52:10;;;;;;;;;6.00;5.00;;;;;33.09;29.55;101032.59;5000238;28;45502;-45
2023/07/11 09:54:44;;;;;;;;;3.00;3.00;;;;;32.90;29.46;101023.41;5018086;28;45359;-45
2023/07/11 09:57:10;;;;;;;;;4.50;2.75;;;;;32.81;29.83;101022.81;5012427;28;45402;-45
2023/07/11 09:59:35;;;;;;;;;2.75;2.75;;;;;32.86;29.84;101028.50;5016198;28;45374;-44
2023/07/11 10:02:03;;;;;;;;;5.67;4.33;;;;;32.88;29.72;101028.28;5016299;28;45491;-45
2023/07/11 10:04:29;;;;;;;;;4.00;4.00;;;;;32.92;29.67;101021.25;5019986;28;45383;-45
2023/07/11 10:06:59;;;;;;;;;3.00;3.00;;;;;32.96;29.25;101025.28;5018665;28;46110;-45
2023/07/11 10:09:28;;;;;;;;;3.00;3.00;;;;;33.01;29.26;101019.97;5018513;28;45407;-46
2023/07/11 10:12:03;;;;;;;;;6.33;4.33;;;;;33.02;29.17;101018.03;5015368;28;45436;-45
2023/07/11 10:14:39;;;;;;;;;7.33;5.00;;;;;33.14;29.33;101016.25;5013223;28;45500;-45
2023/07/11 10:17:18;;;;;;;;;5.00;5.00;;;;;33.24;28.34;101002.84;5019913;28;46204;-45
2023/07/11 10:19:50;;;;;;;;;0.00;0.00;;;;;33.26;28.76;100992.47;5013170;28;45449;-46
2023/07/11 10:22:19;;;;;;;;;2.75;2.75;;;;;33.37;29.18;100987.31;5018628;28;45294;-44
2023/07/11 10:24:44;;;;;;;;;3.00;3.00;;;;;33.38;28.91;100984.34;5014095;28;45519;-44
2023/07/11 10:27:14;;;;;;;;;3.50;3.50;;;;;33.39;28.66;100983.28;5009759;28;65164;-46
2023/07/11 10:29:50;;;;;;;;;5.50;3.50;;;;;33.45;28.38;100982.38;5019343;28;45574;-43
2023/07/11 10:32:25;;;;;;;;;2.25;2.25;;;;;33.50;28.51;100983.63;5017215;28;45376;-46
2023/07/11 10:34:55;;;;;;;;;5.00;3.67;;;;;33.52;28.38;100975.94;5016787;28;45455;-46
2023/07/11 10:37:30;;;;;;;;;5.00;5.00;;;;;33.58;28.33;100977.81;5015411;28;46358;-45
2023/07/11 10:40:04;;;;;;;;;4.50;4.50;;;;;33.60;28.52;100976.50;5013204;28;45675;-45
2023/07/11 10:42:40;;;;;;;;;3.50;3.25;;;;;33.66;28.36;100971.16;5015373;28;45440;-45
2023/07/11 10:45:08;;;;;;;;;3.00;3.00;;;;;33.69;28.48;100974.31;5011566;28;45600;-45
2023/07/11 10:47:39;;;;;;;;;3.00;3.00;;;;;33.85;28.49;100969.34;5019833;28;46300;-45
2023/07/11 10:50:24;;;;;;;;;3.00;3.00;;;;;34.05;28.26;100964.41;5005773;28;45670;-45
2023/07/11 10:52:52;;;;;;;;;4.00;4.00;;;;;34.25;28.15;100957.81;5013576;28;45805;-45
2023/07/11 10:55:25;;;;;;;;;4.25;2.50;;;;;34.44;27.75;100954.00;5018371;28;45380;-46
2023/07/11 10:57:53;;;;;;;;;2.25;2.25;;;;;34.70;27.88;100949.19;5014712;28;47327;-46
2023/07/11 11:00:54;;;;;;;;;2.50;2.50;;;;;34.96;27.43;100949.94;5016235;28;45482;-46
2023/07/11 11:03:39;;;;;;;;;6.50;3.75;;;;;35.09;26.77;100948.88;5006243;28;46854;-46
2023/07/11 11:06:36;;;;;;;;;2.50;2.50;;;;;35.06;26.90;100936.38;5015858;28;45514;-45
2023/07/11 11:09:11;;;;;;;;;4.67;3.00;;;;;34.98;26.89;100931.22;5019131;28;46535;-46
2023/07/11 11:11:59;;;;;;;;;3.00;3.00;;;;;35.26;26.31;100930.50;5010367;28;45369;-45
2023/07/11 11:14:34;;;;;;;;;4.00;4.00;;;;;35.37;26.79;100919.75;5017363;28;45304;-45
2023/07/11 11:17:10;;;;;;;;;1.00;1.00;;;;;35.64;26.59;100925.63;5019529;28;45677;-45
2023/07/11 11:20:05;;;;;;;;;2.00;2.00;;;;;35.88;26.22;100920.97;5018956;28;47017;-45
2023/07/11 11:23:15;;;;;;;;;2.25;2.25;;;;;36.31;25.72;100920.72;5017180;28;45223;-45
2023/07/11 11:25:45;;;;;;;;;3.00;3.00;;;;;36.42;24.74;100912.41;5012238;28;45512;-46
2023/07/11 11:28:25;;;;;;;;;3.33;3.33;;;;;36.66;25.30;100911.47;5017490;28;45471;-45